Terminal Aerodrome Forecast
Issued by NWS

Current Version | Previous Version | Graphics & Text | Print | Product List | Glossary On
Versions: 1 2 3 4 5 6 7 8 9 10 11 12 13 14 15 16 17 18 19
305
FTUS41 KILN 231730
TAFLUK
TAF
KLUK 231730Z 2318/2418 08008KT 4SM -RA BR OVC040
     FM232100 10012G20KT 5SM -SHRA OVC030
     FM240000 09012G20KT P6SM VCSH OVC020
     FM240300 08012KT P6SM VCSH OVC020
     FM241200 08011KT 5SM -SHRA OVC012=

USA.gov is the U.S. government's official web portal to all federal, state and local government web resources and services.